createdAt,value
2018-08-24T00:00:34.457Z,21.63
2018-08-24T00:03:02.957Z,21.64
2018-08-24T00:05:31.616Z,21.89
2018-08-24T00:08:00.063Z,21.97
2018-08-24T00:10:28.569Z,22.01
2018-08-24T00:12:57.195Z,21.97
2018-08-24T00:15:25.751Z,21.83
2018-08-24T00:17:54.204Z,21.81
2018-08-24T00:20:22.915Z,21.60
2018-08-24T00:22:51.407Z,21.49
2018-08-24T00:25:19.903Z,21.35
2018-08-24T00:27:48.776Z,21.20
2018-08-24T00:30:17.209Z,21.03
2018-08-24T00:32:45.679Z,20.83
2018-08-24T00:35:14.368Z,21.03
2018-08-24T00:37:42.887Z,20.88
2018-08-24T00:40:11.390Z,21.07
2018-08-24T00:42:40.131Z,20.85
2018-08-24T00:45:08.620Z,21.14
2018-08-24T00:47:37.093Z,21.09
2018-08-24T00:50:05.885Z,21.00
2018-08-24T00:52:34.363Z,20.96
2018-08-24T00:55:02.847Z,21.03
2018-08-24T00:57:31.427Z,20.79
2018-08-24T00:59:59.991Z,20.75
2018-08-24T01:02:28.439Z,20.87
2018-08-24T01:04:57.035Z,20.96
2018-08-24T01:07:25.529Z,20.82
2018-08-24T01:09:54.039Z,20.60
2018-08-24T01:12:22.695Z,20.33
2018-08-24T01:14:51.140Z,20.11
2018-08-24T01:17:25.728Z,20.08
2018-08-24T01:19:54.158Z,19.89
2018-08-24T01:22:22.635Z,20.23
2018-08-24T01:24:51.167Z,20.19
2018-08-24T01:27:19.652Z,20.57
2018-08-24T01:29:48.128Z,20.32
2018-08-24T01:32:16.904Z,20.37
2018-08-24T01:34:45.457Z,20.08
2018-08-24T01:37:14.027Z,20.16
2018-08-24T01:39:42.500Z,20.24
2018-08-24T01:42:11.076Z,20.39
2018-08-24T01:44:39.688Z,20.25
2018-08-24T01:47:08.259Z,20.16
2018-08-24T01:49:36.684Z,20.24
2018-08-24T01:52:05.150Z,20.11
2018-08-24T01:54:33.762Z,20.30
2018-08-24T01:57:02.186Z,19.71
2018-08-24T01:59:30.619Z,19.45
2018-08-24T02:01:59.163Z,19.41
2018-08-24T02:04:27.741Z,19.24
2018-08-24T02:06:56.260Z,20.12
2018-08-24T02:09:24.942Z,20.00
2018-08-24T02:11:53.495Z,20.15
2018-08-24T02:14:27.393Z,19.96
2018-08-24T02:16:55.780Z,20.21
2018-08-24T02:19:29.465Z,20.29
2018-08-24T02:22:03.175Z,20.30
2018-08-24T02:24:31.972Z,19.99
2018-08-24T02:27:00.491Z,19.81
2018-08-24T02:29:28.923Z,19.75
2018-08-24T02:31:57.387Z,19.88
2018-08-24T02:34:25.898Z,19.72
2018-08-24T02:36:54.384Z,19.33
2018-08-24T02:39:22.839Z,19.19
2018-08-24T02:41:51.399Z,18.83
2018-08-24T02:44:19.784Z,18.77
2018-08-24T02:46:48.276Z,18.93
2018-08-24T02:49:16.737Z,18.97
2018-08-24T02:51:45.167Z,18.80
2018-08-24T02:54:13.655Z,18.92
2018-08-24T02:56:42.123Z,19.09
2018-08-24T02:59:10.563Z,19.07
2018-08-24T03:01:39.157Z,19.18
2018-08-24T03:04:07.628Z,19.39
2018-08-24T03:06:36.191Z,19.40
2018-08-24T03:09:08.299Z,19.79
2018-08-24T03:11:36.768Z,19.47
2018-08-24T03:14:05.208Z,19.32
2018-08-24T03:16:33.855Z,19.20
2018-08-24T03:19:02.359Z,19.21
2018-08-24T03:21:30.855Z,19.23
2018-08-24T03:23:59.509Z,19.21
2018-08-24T03:26:28.072Z,19.12
2018-08-24T03:28:56.551Z,19.17
2018-08-24T03:31:25.018Z,18.94
2018-08-24T03:33:53.467Z,19.16
2018-08-24T03:36:21.899Z,19.10
2018-08-24T03:38:50.784Z,19.04
2018-08-24T03:41:19.199Z,19.06
2018-08-24T03:43:47.663Z,18.88
2018-08-24T03:46:16.180Z,18.78
2018-08-24T03:48:44.686Z,18.67
2018-08-24T03:51:13.131Z,18.60
2018-08-24T03:53:41.599Z,18.56
2018-08-24T03:56:10.032Z,18.48
2018-08-24T03:58:38.572Z,18.49
2018-08-24T04:01:07.331Z,18.40
2018-08-24T04:03:35.869Z,18.22
2018-08-24T04:06:04.315Z,18.15
2018-08-24T04:08:33.038Z,18.13
2018-08-24T04:11:01.557Z,18.10
2018-08-24T04:13:30.024Z,18.23
2018-08-24T04:15:58.687Z,18.11
2018-08-24T04:18:27.133Z,18.16
2018-08-24T04:20:55.664Z,18.25
2018-08-24T04:23:24.445Z,18.62
2018-08-24T04:25:52.942Z,18.56
2018-08-24T04:28:21.399Z,18.58
2018-08-24T04:30:50.088Z,19.02
2018-08-24T04:33:18.517Z,18.64
2018-08-24T04:35:46.959Z,18.45
2018-08-24T04:38:15.436Z,18.46
2018-08-24T04:40:43.883Z,18.60
2018-08-24T04:43:12.372Z,18.41
2018-08-24T04:45:41.204Z,17.86
2018-08-24T04:48:09.570Z,17.86
2018-08-24T04:50:38.049Z,17.99
2018-08-24T04:53:06.581Z,17.78
2018-08-24T04:55:35.067Z,17.81
2018-08-24T04:58:03.555Z,17.92
2018-08-24T05:00:32.211Z,17.54
2018-08-24T05:03:00.760Z,17.65
2018-08-24T05:05:29.215Z,18.11
2018-08-24T05:07:57.908Z,17.91
2018-08-24T05:10:26.451Z,18.27
2018-08-24T05:12:54.989Z,18.14
2018-08-24T05:15:23.577Z,18.11
2018-08-24T05:17:52.215Z,18.04
2018-08-24T05:20:20.767Z,18.15
2018-08-24T05:22:49.483Z,18.17
2018-08-24T05:25:18.003Z,18.33
2018-08-24T05:27:46.496Z,18.62
2018-08-24T05:30:15.192Z,18.61
2018-08-24T05:32:43.784Z,18.92
2018-08-24T05:35:12.239Z,18.93
2018-08-24T05:37:40.675Z,18.92
2018-08-24T05:40:09.143Z,19.17
2018-08-24T05:42:37.664Z,18.80
2018-08-24T05:45:06.819Z,18.87
2018-08-24T05:47:35.296Z,19.02
2018-08-24T05:50:04.556Z,19.01
2018-08-24T05:52:33.079Z,18.96
2018-08-24T05:55:01.582Z,18.95
2018-08-24T05:57:30.299Z,18.90
2018-08-24T05:59:59.043Z,19.04
2018-08-24T06:02:27.635Z,19.06
2018-08-24T06:04:56.511Z,19.37
2018-08-24T06:07:25.340Z,19.26
2018-08-24T06:09:53.880Z,19.45
2018-08-24T06:12:22.351Z,19.64
2018-08-24T06:14:51.122Z,19.68
2018-08-24T06:17:24.981Z,20.04
2018-08-24T06:19:53.653Z,20.32
2018-08-24T06:22:22.198Z,20.35
2018-08-24T06:24:50.603Z,20.41
2018-08-24T06:27:19.340Z,20.59
2018-08-24T06:29:47.756Z,21.21
2018-08-24T06:32:16.296Z,21.12
2018-08-24T06:34:44.730Z,20.86
2018-08-24T06:37:13.411Z,21.12
2018-08-24T06:39:41.962Z,21.35
2018-08-24T06:42:10.532Z,21.43
2018-08-24T06:44:39.020Z,21.67
2018-08-24T06:47:07.530Z,21.41
2018-08-24T06:49:36.195Z,21.03
2018-08-24T06:52:04.733Z,21.07
2018-08-24T06:54:33.231Z,21.35
2018-08-24T06:57:01.876Z,21.27
2018-08-24T06:59:30.349Z,21.24
2018-08-24T07:01:59.659Z,21.23
2018-08-24T07:04:28.389Z,21.56
2018-08-24T07:06:56.917Z,21.55
2018-08-24T07:09:30.155Z,21.86
2018-08-24T07:11:58.722Z,21.82
2018-08-24T07:14:27.311Z,21.24
2018-08-24T07:16:59.251Z,21.18
2018-08-24T07:19:28.519Z,21.70
2018-08-24T07:21:57.231Z,21.27
2018-08-24T07:24:26.289Z,21.34
2018-08-24T07:26:55.051Z,21.43
2018-08-24T07:29:23.496Z,21.07
2018-08-24T07:31:52.059Z,21.38
2018-08-24T07:34:20.493Z,21.21
2018-08-24T07:36:48.983Z,20.91
2018-08-24T07:39:17.493Z,20.94
2018-08-24T07:41:46.080Z,20.79
2018-08-24T07:44:14.499Z,20.49
2018-08-24T07:46:43.000Z,20.44
2018-08-24T07:49:11.459Z,20.40
2018-08-24T07:51:40.184Z,20.79
2018-08-24T07:54:08.823Z,21.00
2018-08-24T07:56:37.383Z,20.64
2018-08-24T07:59:05.847Z,20.59
2018-08-24T08:01:34.396Z,20.27
2018-08-24T08:04:04.054Z,20.20
2018-08-24T08:06:32.596Z,20.65
2018-08-24T08:09:01.541Z,20.40
2018-08-24T08:11:35.005Z,20.75
2018-08-24T08:14:04.474Z,20.51
2018-08-24T08:16:33.004Z,20.58
2018-08-24T08:19:01.467Z,20.66
2018-08-24T08:21:30.041Z,19.98
2018-08-24T08:23:58.599Z,19.59
2018-08-24T08:26:27.031Z,19.36
2018-08-24T08:28:55.815Z,19.72
2018-08-24T08:31:24.344Z,19.54
2018-08-24T08:33:52.847Z,19.24
2018-08-24T08:36:21.519Z,19.30
2018-08-24T08:38:49.948Z,19.36
2018-08-24T08:41:18.455Z,19.94
2018-08-24T08:43:47.148Z,19.30
2018-08-24T08:46:15.627Z,19.36
2018-08-24T08:48:44.113Z,19.09
2018-08-24T08:51:12.631Z,19.47
2018-08-24T08:53:41.137Z,19.34
2018-08-24T08:56:09.691Z,19.05
2018-08-24T08:58:38.363Z,19.07
2018-08-24T09:01:06.811Z,18.96
2018-08-24T09:03:35.287Z,19.32
2018-08-24T09:06:04.024Z,18.87
2018-08-24T09:08:32.420Z,19.32
2018-08-24T09:11:01.009Z,19.01
2018-08-24T09:13:29.627Z,18.85
2018-08-24T09:15:58.174Z,18.64
2018-08-24T09:18:31.913Z,18.75
2018-08-24T09:21:05.799Z,18.27
2018-08-24T09:23:39.909Z,18.29
2018-08-24T09:26:13.560Z,18.21
2018-08-24T09:28:42.577Z,18.40
2018-08-24T09:31:16.447Z,18.82
2018-08-24T09:33:45.159Z,18.46
2018-08-24T09:36:21.692Z,18.27
2018-08-24T09:38:51.754Z,18.41
2018-08-24T09:41:20.530Z,18.89
2018-08-24T09:43:57.967Z,19.08
2018-08-24T09:46:31.771Z,18.99
2018-08-24T09:49:05.782Z,18.74
2018-08-24T09:51:34.152Z,18.67
2018-08-24T09:54:05.028Z,19.04
2018-08-24T09:56:34.447Z,19.32
2018-08-24T09:59:03.340Z,19.13
2018-08-24T10:01:37.306Z,19.06
2018-08-24T10:04:11.071Z,19.43
2018-08-24T10:06:45.166Z,19.61
2018-08-24T10:09:14.831Z,19.84
2018-08-24T10:11:43.652Z,20.09
2018-08-24T10:14:12.892Z,19.61
2018-08-24T10:16:41.512Z,19.93
2018-08-24T10:19:14.573Z,19.83
2018-08-24T10:21:43.011Z,19.70
2018-08-24T10:24:12.034Z,19.71
2018-08-24T10:26:41.051Z,19.80
2018-08-24T10:29:09.674Z,20.21
2018-08-24T10:31:38.659Z,19.93
2018-08-24T10:34:07.360Z,19.97
2018-08-24T10:36:36.015Z,20.12
2018-08-24T10:39:06.728Z,20.29
2018-08-24T10:41:35.180Z,20.81
2018-08-24T10:44:03.748Z,20.88
2018-08-24T10:46:32.775Z,21.02
2018-08-24T10:49:01.744Z,21.12
2018-08-24T10:51:30.231Z,21.00
2018-08-24T10:53:58.743Z,20.62
2018-08-24T10:56:27.376Z,20.87
2018-08-24T10:58:56.059Z,21.37
2018-08-24T11:01:24.552Z,21.40
2018-08-24T11:03:52.993Z,21.95
2018-08-24T11:06:21.496Z,21.86
2018-08-24T11:08:50.033Z,21.98
2018-08-24T11:11:18.460Z,22.10
2018-08-24T11:13:46.887Z,22.14
2018-08-24T11:16:15.584Z,22.38
2018-08-24T11:18:44.039Z,22.79
2018-08-24T11:21:12.484Z,22.51
2018-08-24T11:23:41.156Z,22.58
2018-08-24T11:26:13.147Z,23.05
2018-08-24T11:28:43.640Z,22.53
2018-08-24T11:31:12.710Z,22.99
2018-08-24T11:33:43.278Z,23.25
2018-08-24T11:36:11.991Z,23.72
2018-08-24T11:38:41.200Z,23.80
2018-08-24T11:41:15.861Z,23.21
2018-08-24T11:43:44.547Z,23.80
2018-08-24T11:46:13.015Z,23.66
2018-08-24T11:48:41.645Z,23.69
2018-08-24T11:51:10.177Z,24.13
2018-08-24T11:53:38.694Z,24.02
2018-08-24T11:56:07.421Z,24.72
2018-08-24T11:58:35.991Z,24.23
2018-08-24T12:01:04.625Z,24.24
2018-08-24T12:03:33.195Z,24.34
2018-08-24T12:06:01.667Z,24.69
2018-08-24T12:08:30.393Z,24.48
2018-08-24T12:10:58.879Z,24.21
2018-08-24T12:13:27.302Z,23.73
2018-08-24T12:15:55.947Z,23.77
2018-08-24T12:18:24.483Z,24.03
2018-08-24T12:20:52.955Z,23.78
2018-08-24T12:23:21.436Z,24.03
2018-08-24T12:25:49.899Z,24.10
2018-08-24T12:28:18.359Z,24.10
2018-08-24T12:30:46.895Z,24.20
2018-08-24T12:33:15.383Z,24.15
2018-08-24T12:35:43.887Z,24.29
2018-08-24T12:38:12.727Z,24.21
2018-08-24T12:40:41.240Z,24.18
2018-08-24T12:43:09.807Z,24.06
2018-08-24T12:45:38.443Z,23.96
2018-08-24T12:48:06.887Z,24.23
2018-08-24T12:50:35.353Z,24.16
2018-08-24T12:53:03.887Z,24.11
2018-08-24T12:55:32.311Z,24.42
2018-08-24T12:58:00.772Z,24.59
2018-08-24T13:00:29.255Z,24.31
2018-08-24T13:02:57.715Z,24.75
2018-08-24T13:05:26.315Z,24.76
2018-08-24T13:07:55.119Z,24.79
2018-08-24T13:10:23.599Z,25.04
2018-08-24T13:12:52.538Z,24.66
2018-08-24T13:15:21.670Z,24.54
2018-08-24T13:17:50.138Z,24.46
2018-08-24T13:20:18.564Z,24.30
2018-08-24T13:22:47.174Z,24.43
2018-08-24T13:25:15.611Z,24.52
2018-08-24T13:27:44.100Z,24.08
2018-08-24T13:30:12.634Z,24.65
2018-08-24T13:32:41.209Z,24.42
2018-08-24T13:35:09.692Z,24.54
2018-08-24T13:37:38.308Z,24.39
2018-08-24T13:40:07.212Z,24.24
2018-08-24T13:42:35.731Z,24.15
2018-08-24T13:45:04.455Z,24.14
2018-08-24T13:47:33.142Z,24.19
2018-08-24T13:50:01.623Z,24.19
2018-08-24T13:52:30.232Z,24.37
2018-08-24T13:54:58.781Z,24.17
2018-08-24T13:57:27.224Z,24.01
2018-08-24T13:59:55.878Z,24.17
2018-08-24T14:02:24.260Z,24.15
2018-08-24T14:04:52.726Z,24.14
2018-08-24T14:07:21.203Z,24.14
2018-08-24T14:09:49.740Z,24.04
2018-08-24T14:12:18.243Z,24.08
2018-08-24T14:14:46.897Z,24.04
2018-08-24T14:17:15.423Z,24.09
2018-08-24T14:19:43.831Z,24.12
2018-08-24T14:22:12.379Z,24.08
2018-08-24T14:24:40.891Z,23.90
2018-08-24T14:27:09.619Z,24.01
2018-08-24T14:29:38.052Z,23.90
2018-08-24T14:32:06.838Z,23.71
2018-08-24T14:34:35.272Z,23.62
2018-08-24T14:37:03.916Z,23.81
2018-08-24T14:39:32.494Z,23.58
2018-08-24T14:42:00.907Z,23.53
2018-08-24T14:44:29.476Z,23.70
2018-08-24T14:46:57.908Z,23.66
2018-08-24T14:49:26.355Z,23.74
2018-08-24T14:51:55.183Z,23.46
2018-08-24T14:54:23.658Z,23.40
2018-08-24T14:56:52.154Z,23.29
2018-08-24T14:59:20.906Z,23.34
2018-08-24T15:01:49.451Z,23.24
2018-08-24T15:04:17.936Z,23.43
2018-08-24T15:06:46.600Z,23.48
2018-08-24T15:09:15.113Z,23.35
2018-08-24T15:11:43.599Z,23.40
2018-08-24T15:14:12.411Z,23.29
2018-08-24T15:16:40.939Z,23.26
2018-08-24T15:19:09.343Z,23.40
2018-08-24T15:21:38.079Z,23.28
2018-08-24T15:24:07.088Z,23.29
2018-08-24T15:26:35.612Z,23.33
2018-08-24T15:29:04.260Z,23.07
2018-08-24T15:31:32.788Z,23.00
2018-08-24T15:34:01.283Z,23.03
2018-08-24T15:36:30.044Z,22.99
2018-08-24T15:38:58.563Z,22.87
2018-08-24T15:41:27.051Z,22.92
2018-08-24T15:43:55.539Z,23.06
2018-08-24T15:46:24.308Z,23.04
2018-08-24T15:48:52.672Z,23.35
2018-08-24T15:51:21.320Z,23.19
2018-08-24T15:53:49.861Z,23.34
2018-08-24T15:56:18.343Z,23.17
2018-08-24T15:58:47.020Z,23.10
2018-08-24T16:01:15.705Z,23.22
2018-08-24T16:03:44.227Z,23.27
2018-08-24T16:06:12.755Z,23.29
2018-08-24T16:08:41.236Z,23.30
2018-08-24T16:11:09.671Z,23.14
2018-08-24T16:13:38.147Z,23.10
2018-08-24T16:16:07.368Z,23.19
2018-08-24T16:18:35.823Z,23.25
2018-08-24T16:21:04.535Z,23.15
2018-08-24T16:23:33.127Z,23.42
2018-08-24T16:26:01.605Z,23.37
2018-08-24T16:28:30.259Z,23.18
2018-08-24T16:30:58.809Z,23.33
2018-08-24T16:33:27.252Z,23.08
2018-08-24T16:35:55.907Z,23.16
2018-08-24T16:38:24.355Z,23.10
2018-08-24T16:40:52.863Z,23.11
2018-08-24T16:43:21.380Z,23.06
2018-08-24T16:45:49.804Z,22.98
2018-08-24T16:48:18.327Z,22.85
2018-08-24T16:50:46.865Z,22.73
2018-08-24T16:53:15.295Z,22.81
2018-08-24T16:55:43.775Z,22.78
2018-08-24T16:58:13.240Z,23.15
2018-08-24T17:00:41.663Z,22.93
2018-08-24T17:03:10.244Z,22.95
2018-08-24T17:05:39.107Z,22.69
2018-08-24T17:08:07.980Z,22.72
2018-08-24T17:10:36.543Z,22.52
2018-08-24T17:13:07.864Z,22.78
2018-08-24T17:15:36.405Z,22.93
2018-08-24T17:18:05.203Z,22.50
2018-08-24T17:20:39.709Z,22.87
2018-08-24T17:23:09.857Z,22.61
2018-08-24T17:25:39.195Z,22.47
2018-08-24T17:28:07.709Z,22.55
2018-08-24T17:30:36.128Z,22.33
2018-08-24T17:33:04.743Z,22.14
2018-08-24T17:35:33.324Z,22.23
2018-08-24T17:38:01.768Z,22.16
2018-08-24T17:40:33.077Z,22.09
2018-08-24T17:43:03.317Z,21.96
2018-08-24T17:45:32.315Z,21.68
2018-08-24T17:48:00.890Z,21.68
2018-08-24T17:50:29.352Z,21.62
2018-08-24T17:52:57.831Z,21.67
2018-08-24T17:55:26.327Z,21.56
2018-08-24T17:57:54.817Z,21.53
2018-08-24T18:00:23.599Z,21.74
2018-08-24T18:02:52.315Z,21.77
2018-08-24T18:05:20.825Z,21.52
2018-08-24T18:07:49.416Z,21.88
2018-08-24T18:10:17.924Z,21.47
2018-08-24T18:12:46.405Z,21.43
2018-08-24T18:15:15.080Z,21.59
2018-08-24T18:17:43.425Z,21.34
2018-08-24T18:20:11.884Z,21.32
2018-08-24T18:22:40.674Z,21.51
2018-08-24T18:25:09.188Z,21.82
2018-08-24T18:27:37.647Z,22.00
2018-08-24T18:30:06.439Z,21.38
2018-08-24T18:32:34.887Z,21.58
2018-08-24T18:35:03.526Z,21.35
2018-08-24T18:37:32.111Z,21.08
2018-08-24T18:40:00.550Z,20.91
2018-08-24T18:42:29.076Z,21.05
2018-08-24T18:44:57.735Z,20.77
2018-08-24T18:47:26.382Z,21.17
2018-08-24T18:49:54.962Z,21.35
2018-08-24T18:52:23.644Z,21.37
2018-08-24T18:54:52.157Z,20.84
2018-08-24T18:57:20.743Z,21.04
2018-08-24T18:59:49.498Z,20.79
2018-08-24T19:02:18.112Z,20.78
2018-08-24T19:04:46.623Z,20.74
2018-08-24T19:07:15.268Z,20.88
2018-08-24T19:09:43.988Z,20.67
2018-08-24T19:12:18.085Z,20.77
2018-08-24T19:14:47.137Z,20.89
2018-08-24T19:17:21.286Z,20.99
2018-08-24T19:19:55.489Z,20.96
2018-08-24T19:22:25.061Z,20.41
2018-08-24T19:24:54.116Z,20.33
2018-08-24T19:27:27.282Z,20.35
2018-08-24T19:30:01.238Z,20.30
2018-08-24T19:32:30.341Z,20.32
2018-08-24T19:34:59.417Z,20.22
2018-08-24T19:37:28.498Z,20.17
2018-08-24T19:40:02.629Z,20.08
2018-08-24T19:42:32.220Z,20.68
2018-08-24T19:45:01.970Z,20.52
2018-08-24T19:47:36.222Z,20.34
2018-08-24T19:50:05.395Z,20.18
2018-08-24T19:52:34.211Z,20.02
2018-08-24T19:55:03.204Z,20.07
2018-08-24T19:57:37.359Z,20.24
2018-08-24T20:00:06.574Z,20.32
2018-08-24T20:02:35.443Z,20.15
2018-08-24T20:05:04.865Z,20.19
2018-08-24T20:07:38.939Z,20.01
2018-08-24T20:10:10.882Z,20.32
2018-08-24T20:12:39.871Z,20.05
2018-08-24T20:15:14.277Z,20.16
2018-08-24T20:17:44.210Z,20.05
2018-08-24T20:20:14.180Z,19.89
2018-08-24T20:22:43.182Z,19.87
2018-08-24T20:25:12.030Z,19.66
2018-08-24T20:27:41.305Z,19.78
2018-08-24T20:30:10.210Z,19.69
2018-08-24T20:32:39.024Z,19.66
2018-08-24T20:35:08.158Z,19.70
2018-08-24T20:37:36.933Z,19.44
2018-08-24T20:40:06.403Z,19.64
2018-08-24T20:42:35.429Z,19.55
2018-08-24T20:45:04.188Z,19.39
2018-08-24T20:47:32.847Z,19.37
2018-08-24T20:50:01.552Z,19.36
2018-08-24T20:52:30.006Z,19.36
2018-08-24T20:54:58.691Z,19.22
2018-08-24T20:57:27.387Z,19.57
2018-08-24T20:59:55.905Z,19.46
2018-08-24T21:02:24.384Z,19.26
2018-08-24T21:04:53.068Z,19.26
2018-08-24T21:07:21.684Z,19.21
2018-08-24T21:09:50.128Z,19.21
2018-08-24T21:12:18.739Z,19.45
2018-08-24T21:14:47.285Z,19.34
2018-08-24T21:17:15.788Z,19.20
2018-08-24T21:19:44.292Z,19.28
2018-08-24T21:22:12.750Z,19.22
2018-08-24T21:24:41.315Z,19.35
2018-08-24T21:27:09.947Z,19.09
2018-08-24T21:29:38.343Z,19.03
2018-08-24T21:32:06.767Z,19.01
2018-08-24T21:34:35.400Z,19.31
2018-08-24T21:37:03.856Z,19.25
2018-08-24T21:39:32.320Z,19.17
2018-08-24T21:42:00.843Z,19.15
2018-08-24T21:44:29.300Z,19.07
2018-08-24T21:46:57.791Z,18.96
2018-08-24T21:49:26.472Z,18.92
2018-08-24T21:51:55.084Z,18.83
2018-08-24T21:54:23.607Z,18.88
2018-08-24T21:56:52.243Z,18.63
2018-08-24T21:59:20.711Z,18.59
2018-08-24T22:01:49.211Z,18.67
2018-08-24T22:04:17.832Z,18.62
2018-08-24T22:06:46.252Z,18.57
2018-08-24T22:09:14.788Z,18.59
2018-08-24T22:11:43.411Z,18.79
2018-08-24T22:14:12.710Z,18.65
2018-08-24T22:16:41.384Z,18.77
2018-08-24T22:19:10.024Z,18.55
2018-08-24T22:21:38.603Z,18.49
2018-08-24T22:24:07.143Z,18.54
2018-08-24T22:26:35.907Z,18.46
2018-08-24T22:29:04.386Z,18.41
2018-08-24T22:31:32.835Z,18.46
2018-08-24T22:34:01.519Z,18.25
2018-08-24T22:36:29.967Z,18.21
2018-08-24T22:38:58.363Z,18.21
2018-08-24T22:41:26.947Z,18.21
2018-08-24T22:43:55.500Z,17.90
2018-08-24T22:46:23.983Z,17.95
2018-08-24T22:48:52.574Z,17.78
2018-08-24T22:51:21.080Z,17.57
2018-08-24T22:53:49.607Z,17.09
2018-08-24T22:56:18.111Z,17.18
2018-08-24T22:58:46.580Z,17.03
2018-08-24T23:01:15.055Z,17.12
2018-08-24T23:03:43.580Z,17.03
2018-08-24T23:06:12.023Z,16.98
2018-08-24T23:08:40.544Z,17.06
2018-08-24T23:11:09.059Z,17.42
2018-08-24T23:13:37.514Z,17.55
2018-08-24T23:16:06.180Z,17.62
2018-08-24T23:18:34.895Z,17.94
2018-08-24T23:21:03.300Z,17.63
2018-08-24T23:23:31.781Z,17.71
2018-08-24T23:26:00.264Z,17.50
2018-08-24T23:28:28.810Z,17.47
2018-08-24T23:30:57.256Z,17.42
2018-08-24T23:33:26.084Z,17.37
2018-08-24T23:35:54.675Z,17.44
2018-08-24T23:38:23.324Z,17.56
2018-08-24T23:40:52.017Z,17.60
2018-08-24T23:43:20.463Z,17.65
2018-08-24T23:45:48.924Z,17.56
2018-08-24T23:48:17.545Z,17.49
2018-08-24T23:50:45.981Z,17.39
2018-08-24T23:53:14.420Z,17.56
2018-08-24T23:55:43.051Z,17.67
2018-08-24T23:58:11.547Z,17.71
